sensor_id;sensor_type;location;lat;lon;timestamp;temperature;humidity
69938;DHT22;57248;47.320;15.998;2023-04-01T00:00:34;6.52;96.86
69938;DHT22;57248;47.320;15.998;2023-04-01T00:03:06;6.48;96.65
69938;DHT22;57248;47.320;15.998;2023-04-01T00:05:45;6.49;95.66
69938;DHT22;57248;47.320;15.998;2023-04-01T00:08:18;6.46;96.25
69938;DHT22;57248;47.320;15.998;2023-04-01T00:10:50;6.48;95.92
69938;DHT22;57248;47.320;15.998;2023-04-01T00:13:22;6.48;95.44
69938;DHT22;57248;47.320;15.998;2023-04-01T00:15:48;6.46;95.10
69938;DHT22;57248;47.320;15.998;2023-04-01T00:18:20;6.32;96.44
69938;DHT22;57248;47.320;15.998;2023-04-01T00:20:52;6.28;95.71
69938;DHT22;57248;47.320;15.998;2023-04-01T00:23:24;6.32;95.54
69938;DHT22;57248;47.320;15.998;2023-04-01T00:25:59;6.17;96.98
69938;DHT22;57248;47.320;15.998;2023-04-01T00:28:33;6.22;97.89
69938;DHT22;57248;47.320;15.998;2023-04-01T00:31:06;6.25;97.85
69938;DHT22;57248;47.320;15.998;2023-04-01T00:33:39;6.31;97.33
69938;DHT22;57248;47.320;15.998;2023-04-01T00:36:18;6.31;98.07
69938;DHT22;57248;47.320;15.998;2023-04-01T00:38:51;6.34;97.46
69938;DHT22;57248;47.320;15.998;2023-04-01T00:41:23;6.34;96.87
69938;DHT22;57248;47.320;15.998;2023-04-01T00:44:15;6.31;96.97
69938;DHT22;57248;47.320;15.998;2023-04-01T00:46:48;6.15;97.32
69938;DHT22;57248;47.320;15.998;2023-04-01T00:49:23;6.24;96.35
69938;DHT22;57248;47.320;15.998;2023-04-01T00:51:59;6.15;96.81
69938;DHT22;57248;47.320;15.998;2023-04-01T00:54:33;6.15;97.47
69938;DHT22;57248;47.320;15.998;2023-04-01T00:57:17;6.18;96.97
69938;DHT22;57248;47.320;15.998;2023-04-01T00:59:52;6.21;96.55
69938;DHT22;57248;47.320;15.998;2023-04-01T01:02:33;6.22;96.90
69938;DHT22;57248;47.320;15.998;2023-04-01T01:05:06;6.12;97.61
69938;DHT22;57248;47.320;15.998;2023-04-01T01:07:47;6.14;97.87
69938;DHT22;57248;47.320;15.998;2023-04-01T01:10:33;6.24;96.70
69938;DHT22;57248;47.320;15.998;2023-04-01T01:13:36;6.10;97.26
69938;DHT22;57248;47.320;15.998;2023-04-01T01:16:17;6.07;97.33
69938;DHT22;57248;47.320;15.998;2023-04-01T01:19:00;6.11;96.78
69938;DHT22;57248;47.320;15.998;2023-04-01T01:24:44;5.98;97.15
69938;DHT22;57248;47.320;15.998;2023-04-01T01:27:22;5.94;97.21
69938;DHT22;57248;47.320;15.998;2023-04-01T01:30:09;6.01;96.56
69938;DHT22;57248;47.320;15.998;2023-04-01T01:38:14;5.84;97.05
69938;DHT22;57248;47.320;15.998;2023-04-01T01:40:54;5.78;97.06
69938;DHT22;57248;47.320;15.998;2023-04-01T01:43:32;5.90;96.99
69938;DHT22;57248;47.320;15.998;2023-04-01T01:46:02;5.84;96.83
69938;DHT22;57248;47.320;15.998;2023-04-01T01:48:36;5.87;96.60
69938;DHT22;57248;47.320;15.998;2023-04-01T01:51:06;5.83;96.30
69938;DHT22;57248;47.320;15.998;2023-04-01T01:53:39;5.78;96.06
69938;DHT22;57248;47.320;15.998;2023-04-01T01:56:12;5.63;96.56
69938;DHT22;57248;47.320;15.998;2023-04-01T01:58:47;5.59;96.89
69938;DHT22;57248;47.320;15.998;2023-04-01T02:01:27;5.64;97.41
69938;DHT22;57248;47.320;15.998;2023-04-01T02:04:08;5.62;97.78
69938;DHT22;57248;47.320;15.998;2023-04-01T02:07:22;5.64;97.79
69938;DHT22;57248;47.320;15.998;2023-04-01T02:09:55;5.71;97.42
69938;DHT22;57248;47.320;15.998;2023-04-01T02:12:28;5.64;97.46
69938;DHT22;57248;47.320;15.998;2023-04-01T02:15:06;5.60;97.98
69938;DHT22;57248;47.320;15.998;2023-04-01T02:17:43;5.53;97.46
69938;DHT22;57248;47.320;15.998;2023-04-01T02:20:21;5.52;96.57
69938;DHT22;57248;47.320;15.998;2023-04-01T02:22:56;5.46;96.06
69938;DHT22;57248;47.320;15.998;2023-04-01T02:25:35;5.35;95.72
69938;DHT22;57248;47.320;15.998;2023-04-01T02:28:10;5.14;96.73
69938;DHT22;57248;47.320;15.998;2023-04-01T02:30:43;5.19;96.50
69938;DHT22;57248;47.320;15.998;2023-04-01T02:33:16;5.15;96.46
69938;DHT22;57248;47.320;15.998;2023-04-01T02:35:49;5.12;96.64
69938;DHT22;57248;47.320;15.998;2023-04-01T02:38:15;5.16;97.35
69938;DHT22;57248;47.320;15.998;2023-04-01T02:40:50;5.09;97.08
69938;DHT22;57248;47.320;15.998;2023-04-01T02:43:23;5.04;97.26
69938;DHT22;57248;47.320;15.998;2023-04-01T02:45:55;5.02;96.78
69938;DHT22;57248;47.320;15.998;2023-04-01T02:48:28;4.91;97.66
69938;DHT22;57248;47.320;15.998;2023-04-01T02:51:00;4.95;97.46
69938;DHT22;57248;47.320;15.998;2023-04-01T02:53:32;4.85;97.34
69938;DHT22;57248;47.320;15.998;2023-04-01T02:56:04;4.85;96.96
69938;DHT22;57248;47.320;15.998;2023-04-01T02:58:36;4.84;97.02
69938;DHT22;57248;47.320;15.998;2023-04-01T03:01:16;4.68;98.48
69938;DHT22;57248;47.320;15.998;2023-04-01T03:03:48;4.64;98.24
69938;DHT22;57248;47.320;15.998;2023-04-01T03:06:27;4.71;98.06
69938;DHT22;57248;47.320;15.998;2023-04-01T03:08:59;4.77;98.05
69938;DHT22;57248;47.320;15.998;2023-04-01T03:11:26;4.89;97.72
69938;DHT22;57248;47.320;15.998;2023-04-01T03:13:58;4.78;97.49
69938;DHT22;57248;47.320;15.998;2023-04-01T03:16:30;4.75;98.24
69938;DHT22;57248;47.320;15.998;2023-04-01T03:19:02;4.71;97.27
69938;DHT22;57248;47.320;15.998;2023-04-01T03:21:34;4.67;97.00
69938;DHT22;57248;47.320;15.998;2023-04-01T03:24:06;4.54;97.41
69938;DHT22;57248;47.320;15.998;2023-04-01T03:26:39;4.54;96.89
69938;DHT22;57248;47.320;15.998;2023-04-01T03:29:11;4.54;97.35
69938;DHT22;57248;47.320;15.998;2023-04-01T03:31:43;4.49;96.39
69938;DHT22;57248;47.320;15.998;2023-04-01T03:34:15;4.52;96.46
69938;DHT22;57248;47.320;15.998;2023-04-01T03:36:47;4.43;96.86
69938;DHT22;57248;47.320;15.998;2023-04-01T03:39:19;4.43;96.78
69938;DHT22;57248;47.320;15.998;2023-04-01T03:41:51;4.23;96.17
69938;DHT22;57248;47.320;15.998;2023-04-01T03:44:23;4.30;96.65
69938;DHT22;57248;47.320;15.998;2023-04-01T03:46:52;4.16;97.85
69938;DHT22;57248;47.320;15.998;2023-04-01T03:49:23;4.17;96.63
69938;DHT22;57248;47.320;15.998;2023-04-01T03:51:55;4.15;96.85
69938;DHT22;57248;47.320;15.998;2023-04-01T03:54:27;4.19;97.11
69938;DHT22;57248;47.320;15.998;2023-04-01T03:56:59;4.19;97.44
69938;DHT22;57248;47.320;15.998;2023-04-01T03:59:32;4.15;97.45
69938;DHT22;57248;47.320;15.998;2023-04-01T04:02:11;4.07;97.20
69938;DHT22;57248;47.320;15.998;2023-04-01T04:04:43;4.02;96.35
69938;DHT22;57248;47.320;15.998;2023-04-01T04:07:15;3.93;97.09
69938;DHT22;57248;47.320;15.998;2023-04-01T04:10:08;3.81;97.03
69938;DHT22;57248;47.320;15.998;2023-04-01T04:12:39;3.67;97.32
69938;DHT22;57248;47.320;15.998;2023-04-01T04:15:06;3.74;98.70
69938;DHT22;57248;47.320;15.998;2023-04-01T04:17:38;3.81;97.77
69938;DHT22;57248;47.320;15.998;2023-04-01T04:20:10;3.72;98.00
69938;DHT22;57248;47.320;15.998;2023-04-01T04:22:43;3.71;97.92
69938;DHT22;57248;47.320;15.998;2023-04-01T04:25:15;3.75;98.41
69938;DHT22;57248;47.320;15.998;2023-04-01T04:27:47;3.58;98.29
69938;DHT22;57248;47.320;15.998;2023-04-01T04:30:19;3.75;97.99
69938;DHT22;57248;47.320;15.998;2023-04-01T04:32:51;3.77;98.68
69938;DHT22;57248;47.320;15.998;2023-04-01T04:35:23;3.88;98.85
69938;DHT22;57248;47.320;15.998;2023-04-01T04:37:56;3.96;98.14
69938;DHT22;57248;47.320;15.998;2023-04-01T04:40:28;3.84;98.62
69938;DHT22;57248;47.320;15.998;2023-04-01T04:43:00;3.98;98.27
69938;DHT22;57248;47.320;15.998;2023-04-01T04:45:32;4.06;98.30
69938;DHT22;57248;47.320;15.998;2023-04-01T04:48:04;4.16;99.04
69938;DHT22;57248;47.320;15.998;2023-04-01T04:50:37;3.99;97.98
69938;DHT22;57248;47.320;15.998;2023-04-01T04:53:12;4.01;97.80
69938;DHT22;57248;47.320;15.998;2023-04-01T04:55:49;4.03;97.70
69938;DHT22;57248;47.320;15.998;2023-04-01T04:58:32;3.89;98.79
69938;DHT22;57248;47.320;15.998;2023-04-01T05:01:12;3.99;99.22
69938;DHT22;57248;47.320;15.998;2023-04-01T05:03:45;4.06;97.89
69938;DHT22;57248;47.320;15.998;2023-04-01T05:06:25;4.01;98.88
69938;DHT22;57248;47.320;15.998;2023-04-01T05:09:03;4.05;99.05
69938;DHT22;57248;47.320;15.998;2023-04-01T05:11:35;4.23;98.35
69938;DHT22;57248;47.320;15.998;2023-04-01T05:14:14;4.33;98.19
69938;DHT22;57248;47.320;15.998;2023-04-01T05:16:55;4.47;97.59
69938;DHT22;57248;47.320;15.998;2023-04-01T05:19:27;4.67;96.91
69938;DHT22;57248;47.320;15.998;2023-04-01T05:21:53;4.74;96.26
69938;DHT22;57248;47.320;15.998;2023-04-01T05:24:24;4.80;96.98
69938;DHT22;57248;47.320;15.998;2023-04-01T05:26:56;5.02;96.21
69938;DHT22;57248;47.320;15.998;2023-04-01T05:29:29;4.87;97.22
69938;DHT22;57248;47.320;15.998;2023-04-01T05:32:05;5.22;96.80
69938;DHT22;57248;47.320;15.998;2023-04-01T05:34:37;5.64;94.55
69938;DHT22;57248;47.320;15.998;2023-04-01T05:37:09;5.86;94.32
69938;DHT22;57248;47.320;15.998;2023-04-01T05:39:41;6.04;94.46
69938;DHT22;57248;47.320;15.998;2023-04-01T05:42:13;6.25;93.72
69938;DHT22;57248;47.320;15.998;2023-04-01T05:44:47;5.98;94.11
69938;DHT22;57248;47.320;15.998;2023-04-01T05:47:38;6.10;95.28
69938;DHT22;57248;47.320;15.998;2023-04-01T05:50:10;6.32;94.31
69938;DHT22;57248;47.320;15.998;2023-04-01T05:52:43;6.42;93.31
69938;DHT22;57248;47.320;15.998;2023-04-01T05:55:18;6.34;94.00
69938;DHT22;57248;47.320;15.998;2023-04-01T05:57:50;6.62;93.04
69938;DHT22;57248;47.320;15.998;2023-04-01T06:00:22;6.76;93.01
69938;DHT22;57248;47.320;15.998;2023-04-01T06:03:03;6.82;91.93
69938;DHT22;57248;47.320;15.998;2023-04-01T06:05:44;7.11;91.60
69938;DHT22;57248;47.320;15.998;2023-04-01T06:08:18;7.17;91.31
69938;DHT22;57248;47.320;15.998;2023-04-01T06:10:53;7.21;91.08
69938;DHT22;57248;47.320;15.998;2023-04-01T06:33:49;8.38;88.28
69938;DHT22;57248;47.320;15.998;2023-04-01T06:36:39;8.13;89.81
69938;DHT22;57248;47.320;15.998;2023-04-01T06:39:48;8.20;88.29
69938;DHT22;57248;47.320;15.998;2023-04-01T06:46:11;8.84;88.89
69938;DHT22;57248;47.320;15.998;2023-04-01T06:58:39;10.45;83.65
69938;DHT22;57248;47.320;15.998;2023-04-01T07:01:19;10.16;84.91
69938;DHT22;57248;47.320;15.998;2023-04-01T07:03:58;9.97;84.67
69938;DHT22;57248;47.320;15.998;2023-04-01T07:06:45;10.18;84.97
69938;DHT22;57248;47.320;15.998;2023-04-01T07:09:49;10.74;86.81
69938;DHT22;57248;47.320;15.998;2023-04-01T07:15:28;11.93;83.13
69938;DHT22;57248;47.320;15.998;2023-04-01T07:18:10;12.91;77.57
69938;DHT22;57248;47.320;15.998;2023-04-01T07:20:44;13.35;71.53
69938;DHT22;57248;47.320;15.998;2023-04-01T07:23:22;14.70;71.32
69938;DHT22;57248;47.320;15.998;2023-04-01T07:26:17;15.23;68.82
69938;DHT22;57248;47.320;15.998;2023-04-01T07:29:13;15.47;68.00
69938;DHT22;57248;47.320;15.998;2023-04-01T07:35:29;15.38;59.15
69938;DHT22;57248;47.320;15.998;2023-04-01T07:41:44;14.48;58.94
69938;DHT22;57248;47.320;15.998;2023-04-01T07:44:47;14.07;57.49
69938;DHT22;57248;47.320;15.998;2023-04-01T07:48:00;14.09;57.91
69938;DHT22;57248;47.320;15.998;2023-04-01T07:51:01;14.40;56.90
69938;DHT22;57248;47.320;15.998;2023-04-01T07:53:45;14.48;56.60
69938;DHT22;57248;47.320;15.998;2023-04-01T07:56:32;14.84;56.08
69938;DHT22;57248;47.320;15.998;2023-04-01T07:59:21;15.73;55.44
69938;DHT22;57248;47.320;15.998;2023-04-01T08:04:58;15.44;56.26
69938;DHT22;57248;47.320;15.998;2023-04-01T08:19:56;15.79;57.01
69938;DHT22;57248;47.320;15.998;2023-04-01T08:23:11;17.56;53.89
69938;DHT22;57248;47.320;15.998;2023-04-01T08:25:58;15.44;56.81
69938;DHT22;57248;47.320;15.998;2023-04-01T08:31:37;17.50;50.16
69938;DHT22;57248;47.320;15.998;2023-04-01T08:34:16;16.92;53.04
69938;DHT22;57248;47.320;15.998;2023-04-01T08:37:11;17.08;53.44
69938;DHT22;57248;47.320;15.998;2023-04-01T08:40:00;17.80;52.05
69938;DHT22;57248;47.320;15.998;2023-04-01T08:51:06;17.53;47.43
69938;DHT22;57248;47.320;15.998;2023-04-01T08:59:49;17.45;52.25
69938;DHT22;57248;47.320;15.998;2023-04-01T09:05:55;17.14;51.50
69938;DHT22;57248;47.320;15.998;2023-04-01T09:18:28;19.42;46.80
69938;DHT22;57248;47.320;15.998;2023-04-01T09:27:18;19.13;45.06
69938;DHT22;57248;47.320;15.998;2023-04-01T09:32:46;20.67;41.76
69938;DHT22;57248;47.320;15.998;2023-04-01T09:41:36;18.60;44.32
69938;DHT22;57248;47.320;15.998;2023-04-01T09:47:39;19.34;43.41
69938;DHT22;57248;47.320;15.998;2023-04-01T10:14:03;21.45;40.31
69938;DHT22;57248;47.320;15.998;2023-04-01T10:20:08;18.87;43.91
69938;DHT22;57248;47.320;15.998;2023-04-01T10:23:24;18.18;44.32
69938;DHT22;57248;47.320;15.998;2023-04-01T11:18:06;21.08;41.11
69938;DHT22;57248;47.320;15.998;2023-04-01T11:44:46;20.26;39.46
69938;DHT22;57248;47.320;15.998;2023-04-01T11:50:26;17.91;46.68
69938;DHT22;57248;47.320;15.998;2023-04-01T11:53:10;17.77;44.94
69938;DHT22;57248;47.320;15.998;2023-04-01T11:58:53;18.62;43.71
69938;DHT22;57248;47.320;15.998;2023-04-01T12:07:21;19.38;43.09
69938;DHT22;57248;47.320;15.998;2023-04-01T12:10:12;19.02;40.57
69938;DHT22;57248;47.320;15.998;2023-04-01T12:13:18;19.54;41.30
69938;DHT22;57248;47.320;15.998;2023-04-01T12:18:50;20.45;41.72
69938;DHT22;57248;47.320;15.998;2023-04-01T12:21:36;19.83;40.33
69938;DHT22;57248;47.320;15.998;2023-04-01T12:27:43;21.98;39.57
69938;DHT22;57248;47.320;15.998;2023-04-01T12:30:35;20.37;38.61
69938;DHT22;57248;47.320;15.998;2023-04-01T12:36:48;21.25;37.82
69938;DHT22;57248;47.320;15.998;2023-04-01T12:48:17;20.91;36.61
69938;DHT22;57248;47.320;15.998;2023-04-01T13:15:32;21.96;37.07
69938;DHT22;57248;47.320;15.998;2023-04-01T13:26:58;21.97;40.34
69938;DHT22;57248;47.320;15.998;2023-04-01T13:29:39;22.49;38.12
69938;DHT22;57248;47.320;15.998;2023-04-01T13:38:35;20.06;41.58
69938;DHT22;57248;47.320;15.998;2023-04-01T13:44:16;19.14;40.18
69938;DHT22;57248;47.320;15.998;2023-04-01T13:47:24;19.34;41.77
69938;DHT22;57248;47.320;15.998;2023-04-01T13:52:44;19.31;40.58
69938;DHT22;57248;47.320;15.998;2023-04-01T13:58:38;18.62;42.88
69938;DHT22;57248;47.320;15.998;2023-04-01T14:37:01;21.89;42.35
69938;DHT22;57248;47.320;15.998;2023-04-01T14:39:51;21.91;41.35
69938;DHT22;57248;47.320;15.998;2023-04-01T14:42:54;22.28;41.05
69938;DHT22;57248;47.320;15.998;2023-04-01T14:45:46;20.98;40.71
69938;DHT22;57248;47.320;15.998;2023-04-01T14:51:29;21.56;40.82
69938;DHT22;57248;47.320;15.998;2023-04-01T14:56:47;21.52;40.56
69938;DHT22;57248;47.320;15.998;2023-04-01T15:08:06;19.52;41.38
69938;DHT22;57248;47.320;15.998;2023-04-01T15:14:05;19.15;40.85
69938;DHT22;57248;47.320;15.998;2023-04-01T15:25:19;19.73;40.17
69938;DHT22;57248;47.320;15.998;2023-04-01T15:33:32;18.65;42.41
69938;DHT22;57248;47.320;15.998;2023-04-01T15:56:24;18.14;43.65
69938;DHT22;57248;47.320;15.998;2023-04-01T16:16:51;17.81;43.20
69938;DHT22;57248;47.320;15.998;2023-04-01T16:19:37;17.81;43.14
69938;DHT22;57248;47.320;15.998;2023-04-01T16:22:17;17.60;43.25
69938;DHT22;57248;47.320;15.998;2023-04-01T16:30:38;16.61;44.89
69938;DHT22;57248;47.320;15.998;2023-04-01T16:33:22;16.30;45.36
69938;DHT22;57248;47.320;15.998;2023-04-01T16:36:01;15.81;45.43
69938;DHT22;57248;47.320;15.998;2023-04-01T16:38:49;15.86;47.47
69938;DHT22;57248;47.320;15.998;2023-04-01T16:41:34;17.74;56.44
69938;DHT22;57248;47.320;15.998;2023-04-01T16:44:23;17.18;47.39
69938;DHT22;57248;47.320;15.998;2023-04-01T16:46:58;16.68;47.95
69938;DHT22;57248;47.320;15.998;2023-04-01T16:49:36;17.02;49.98
69938;DHT22;57248;47.320;15.998;2023-04-01T16:54:56;16.94;54.27
69938;DHT22;57248;47.320;15.998;2023-04-01T17:00:28;15.31;52.18
69938;DHT22;57248;47.320;15.998;2023-04-01T17:03:16;14.58;52.45
69938;DHT22;57248;47.320;15.998;2023-04-01T17:06:02;14.11;54.97
69938;DHT22;57248;47.320;15.998;2023-04-01T17:09:05;13.70;55.63
69938;DHT22;57248;47.320;15.998;2023-04-01T17:11:49;13.29;57.91
69938;DHT22;57248;47.320;15.998;2023-04-01T17:15:21;12.79;57.96
69938;DHT22;57248;47.320;15.998;2023-04-01T17:23:37;12.48;60.02
69938;DHT22;57248;47.320;15.998;2023-04-01T17:26:39;12.26;62.06
69938;DHT22;57248;47.320;15.998;2023-04-01T17:29:28;12.24;62.71
69938;DHT22;57248;47.320;15.998;2023-04-01T17:32:09;11.61;65.49
69938;DHT22;57248;47.320;15.998;2023-04-01T17:34:53;11.79;64.15
69938;DHT22;57248;47.320;15.998;2023-04-01T17:44:02;11.15;66.47
69938;DHT22;57248;47.320;15.998;2023-04-01T17:54:30;11.90;75.13
69938;DHT22;57248;47.320;15.998;2023-04-01T17:57:32;11.12;67.47
69938;DHT22;57248;47.320;15.998;2023-04-01T18:03:12;11.03;68.57
69938;DHT22;57248;47.320;15.998;2023-04-01T18:06:11;10.77;69.58
69938;DHT22;57248;47.320;15.998;2023-04-01T18:17:57;10.91;68.16
69938;DHT22;57248;47.320;15.998;2023-04-01T18:20:43;10.77;68.84
69938;DHT22;57248;47.320;15.998;2023-04-01T18:23:27;10.70;68.88
69938;DHT22;57248;47.320;15.998;2023-04-01T18:26:07;10.94;69.83
69938;DHT22;57248;47.320;15.998;2023-04-01T18:28:53;10.55;70.27
69938;DHT22;57248;47.320;15.998;2023-04-01T18:31:34;10.45;70.37
69938;DHT22;57248;47.320;15.998;2023-04-01T18:37:02;10.57;67.89
69938;DHT22;57248;47.320;15.998;2023-04-01T18:39:50;10.46;66.95
69938;DHT22;57248;47.320;15.998;2023-04-01T18:45:28;10.66;65.02
69938;DHT22;57248;47.320;15.998;2023-04-01T18:49:05;10.66;65.08
69938;DHT22;57248;47.320;15.998;2023-04-01T18:51:11;10.64;65.53
69938;DHT22;57248;47.320;15.998;2023-04-01T18:56:39;10.64;64.46
69938;DHT22;57248;47.320;15.998;2023-04-01T18:59:36;10.66;64.60
69938;DHT22;57248;47.320;15.998;2023-04-01T19:02:35;10.66;64.79
69938;DHT22;57248;47.320;15.998;2023-04-01T19:05:39;10.97;66.63
69938;DHT22;57248;47.320;15.998;2023-04-01T19:08:31;11.83;67.67
69938;DHT22;57248;47.320;15.998;2023-04-01T19:14:26;11.07;63.45
69938;DHT22;57248;47.320;15.998;2023-04-01T19:22:42;10.91;62.85
69938;DHT22;57248;47.320;15.998;2023-04-01T19:25:39;10.80;64.56
69938;DHT22;57248;47.320;15.998;2023-04-01T19:31:47;10.73;64.96
69938;DHT22;57248;47.320;15.998;2023-04-01T19:34:56;10.62;66.55
69938;DHT22;57248;47.320;15.998;2023-04-01T19:37:40;10.49;67.71
69938;DHT22;57248;47.320;15.998;2023-04-01T19:43:59;10.42;67.20
69938;DHT22;57248;47.320;15.998;2023-04-01T19:46:46;10.38;66.19
69938;DHT22;57248;47.320;15.998;2023-04-01T19:52:31;10.39;65.85
69938;DHT22;57248;47.320;15.998;2023-04-01T19:58:04;10.31;66.13
69938;DHT22;57248;47.320;15.998;2023-04-01T20:00:42;10.39;65.68
69938;DHT22;57248;47.320;15.998;2023-04-01T20:03:46;10.33;65.96
69938;DHT22;57248;47.320;15.998;2023-04-01T20:18:02;10.21;66.73
69938;DHT22;57248;47.320;15.998;2023-04-01T20:20:34;10.19;66.93
69938;DHT22;57248;47.320;15.998;2023-04-01T20:26:12;9.87;71.09
69938;DHT22;57248;47.320;15.998;2023-04-01T20:28:57;9.80;72.32
69938;DHT22;57248;47.320;15.998;2023-04-01T20:31:34;9.77;72.38
69938;DHT22;57248;47.320;15.998;2023-04-01T20:40:02;9.88;71.20
69938;DHT22;57248;47.320;15.998;2023-04-01T20:45:38;9.74;73.57
69938;DHT22;57248;47.320;15.998;2023-04-01T20:50:51;9.61;74.10
69938;DHT22;57248;47.320;15.998;2023-04-01T21:02:20;9.13;75.80
69938;DHT22;57248;47.320;15.998;2023-04-01T21:13:50;9.36;72.38
69938;DHT22;57248;47.320;15.998;2023-04-01T21:16:49;9.40;71.38
69938;DHT22;57248;47.320;15.998;2023-04-01T21:25:47;9.48;71.77
69938;DHT22;57248;47.320;15.998;2023-04-01T21:31:16;9.30;73.89
69938;DHT22;57248;47.320;15.998;2023-04-01T21:34:25;9.36;73.84
69938;DHT22;57248;47.320;15.998;2023-04-01T21:42:41;9.69;69.51
69938;DHT22;57248;47.320;15.998;2023-04-01T22:11:17;9.43;75.63
69938;DHT22;57248;47.320;15.998;2023-04-01T22:17:27;9.39;75.40
69938;DHT22;57248;47.320;15.998;2023-04-01T22:20:36;9.19;76.33
69938;DHT22;57248;47.320;15.998;2023-04-01T22:23:26;9.22;78.66
69938;DHT22;57248;47.320;15.998;2023-04-01T22:26:27;9.16;78.21
69938;DHT22;57248;47.320;15.998;2023-04-01T22:32:17;9.15;79.17
69938;DHT22;57248;47.320;15.998;2023-04-01T22:35:07;8.92;82.14
69938;DHT22;57248;47.320;15.998;2023-04-01T22:40:40;8.81;82.59
69938;DHT22;57248;47.320;15.998;2023-04-01T22:43:38;8.82;81.85
69938;DHT22;57248;47.320;15.998;2023-04-01T22:46:26;8.81;82.15
69938;DHT22;57248;47.320;15.998;2023-04-01T22:49:07;8.84;81.72
69938;DHT22;57248;47.320;15.998;2023-04-01T22:57:00;8.85;82.27
69938;DHT22;57248;47.320;15.998;2023-04-01T22:59:46;8.82;82.68
69938;DHT22;57248;47.320;15.998;2023-04-01T23:02:32;8.64;82.88
69938;DHT22;57248;47.320;15.998;2023-04-01T23:05:15;8.61;83.11
69938;DHT22;57248;47.320;15.998;2023-04-01T23:08:23;8.69;81.55
69938;DHT22;57248;47.320;15.998;2023-04-01T23:11:02;8.61;84.46
69938;DHT22;57248;47.320;15.998;2023-04-01T23:13:41;8.67;83.68
69938;DHT22;57248;47.320;15.998;2023-04-01T23:16:17;8.67;84.14
69938;DHT22;57248;47.320;15.998;2023-04-01T23:18:57;8.65;83.45
69938;DHT22;57248;47.320;15.998;2023-04-01T23:24:43;8.34;86.72
69938;DHT22;57248;47.320;15.998;2023-04-01T23:27:30;8.50;84.52
69938;DHT22;57248;47.320;15.998;2023-04-01T23:33:21;8.48;85.02
69938;DHT22;57248;47.320;15.998;2023-04-01T23:35:55;8.29;87.04
69938;DHT22;57248;47.320;15.998;2023-04-01T23:38:28;8.34;86.66
69938;DHT22;57248;47.320;15.998;2023-04-01T23:41:00;8.43;85.93
69938;DHT22;57248;47.320;15.998;2023-04-01T23:43:38;8.41;85.16
69938;DHT22;57248;47.320;15.998;2023-04-01T23:46:12;8.38;87.27
69938;DHT22;57248;47.320;15.998;2023-04-01T23:48:46;8.17;88.22
69938;DHT22;57248;47.320;15.998;2023-04-01T23:51:25;8.20;87.28
69938;DHT22;57248;47.320;15.998;2023-04-01T23:54:18;8.26;86.73
69938;DHT22;57248;47.320;15.998;2023-04-01T23:56:55;8.27;86.77
69938;DHT22;57248;47.320;15.998;2023-04-01T23:59:33;8.30;86.50
